Time;durP1;ratioP1;P1;durP2;ratioP2;P2;SDS_P1;SDS_P2;PMS_P1;PMS_P2;Temp;Humidity;BMP_temperature;BMP_pressure;BME280_temperature;BME280_humidity;BME280_pressure;Samples;Min_cycle;Max_cycle;Signal;HPM_P1;HPM_P2
2022/01/18 00:01:13;;;;;;;21.02;4.00;;;;;;;;;;5070389;28;20504;-77
2022/01/18 00:03:39;;;;;;;29.95;3.58;;;;;;;;;;5054163;28;20488;-77
2022/01/18 00:06:05;;;;;;;33.55;3.63;;;;;;;;;;5070162;28;20051;-77
2022/01/18 00:08:32;;;;;;;32.95;3.70;;;;;;;;;;5070106;28;20511;-77
2022/01/18 00:10:58;;;;;;;40.80;3.78;;;;;;;;;;5053901;28;20136;-77
2022/01/18 00:18:20;;;;;;;35.15;4.18;;;;;;;;;;5069986;28;20059;-78
2022/01/18 00:23:32;;;;;;;44.13;4.70;;;;;;;;;;5070118;28;20446;-77
2022/01/18 00:25:59;;;;;;;41.35;3.85;;;;;;;;;;5053493;28;20086;-77
2022/01/18 00:28:26;;;;;;;53.08;4.32;;;;;;;;;;5052625;28;20101;-77
2022/01/18 00:31:32;;;;;;;51.38;4.53;;;;;;;;;;5069721;28;20097;-77
2022/01/18 00:34:08;;;;;;;36.72;4.00;;;;;;;;;;5071019;28;20133;-77
2022/01/18 00:36:41;;;;;;;52.28;4.80;;;;;;;;;;5070016;28;20047;-77
2022/01/18 00:39:11;;;;;;;58.40;4.30;;;;;;;;;;5069916;28;20036;-77
2022/01/18 00:41:38;;;;;;;60.53;3.97;;;;;;;;;;5052925;28;20045;-77
2022/01/18 00:44:05;;;;;;;47.05;3.83;;;;;;;;;;5069758;28;20041;-78
2022/01/18 00:46:31;;;;;;;55.90;4.05;;;;;;;;;;5068449;28;20037;-77
2022/01/18 00:49:01;;;;;;;44.53;3.47;;;;;;;;;;5069304;28;20055;-77
2022/01/18 00:51:27;;;;;;;53.00;3.55;;;;;;;;;;5068377;28;20102;-78
2022/01/18 00:53:56;;;;;;;59.83;3.83;;;;;;;;;;5069442;28;20423;-77
2022/01/18 00:56:26;;;;;;;69.00;4.55;;;;;;;;;;5069361;28;20048;-77
2022/01/18 00:58:52;;;;;;;31.48;3.67;;;;;;;;;;5069369;28;20109;-77
2022/01/18 01:01:19;;;;;;;32.22;3.67;;;;;;;;;;5052861;28;20506;-77
2022/01/18 01:03:46;;;;;;;38.60;3.85;;;;;;;;;;5069213;28;20083;-77
2022/01/18 01:06:12;;;;;;;40.70;3.95;;;;;;;;;;5070677;28;20094;-77
2022/01/18 01:08:38;;;;;;;40.63;3.58;;;;;;;;;;5054259;28;20124;-78
2022/01/18 01:11:05;;;;;;;24.30;3.35;;;;;;;;;;5071153;28;20041;-77
2022/01/18 01:13:32;;;;;;;32.80;3.58;;;;;;;;;;5069210;28;20559;-77
2022/01/18 01:35:03;;;;;;;41.25;4.10;;;;;;;;;;5068323;28;20056;-77
2022/01/18 01:43:00;;;;;;;86.07;4.30;;;;;;;;;;5068531;28;20056;-77
2022/01/18 01:45:27;;;;;;;48.40;3.95;;;;;;;;;;5051579;28;20043;-77
2022/01/18 01:47:55;;;;;;;60.20;4.22;;;;;;;;;;5068404;28;20132;-77
2022/01/18 01:50:22;;;;;;;50.20;4.07;;;;;;;;;;5067979;28;20044;-77
2022/01/18 01:52:50;;;;;;;61.70;4.35;;;;;;;;;;5051683;28;20042;-77
2022/01/18 01:55:17;;;;;;;44.17;4.22;;;;;;;;;;5068317;28;20056;-77
2022/01/18 01:57:43;;;;;;;50.50;4.25;;;;;;;;;;5068305;28;20080;-78
2022/01/18 02:00:11;;;;;;;51.03;3.80;;;;;;;;;;5067724;28;20127;-77
2022/01/18 02:02:37;;;;;;;52.58;3.92;;;;;;;;;;5068138;28;20079;-77
2022/01/18 02:05:05;;;;;;;43.67;4.13;;;;;;;;;;5068465;28;20144;-77
2022/01/18 02:07:31;;;;;;;41.10;4.20;;;;;;;;;;5051430;28;20115;-77
2022/01/18 02:09:57;;;;;;;32.50;4.47;;;;;;;;;;5068415;28;20464;-77
2022/01/18 02:12:23;;;;;;;45.53;4.45;;;;;;;;;;5067717;28;20170;-78
2022/01/18 02:14:56;;;;;;;77.88;5.40;;;;;;;;;;5067796;28;20332;-77
2022/01/18 02:22:51;;;;;;;52.75;5.55;;;;;;;;;;5068118;28;20050;-78
2022/01/18 02:25:17;;;;;;;75.45;5.18;;;;;;;;;;5050900;28;20044;-77
2022/01/18 02:27:44;;;;;;;61.78;5.38;;;;;;;;;;5067671;28;20044;-78
2022/01/18 02:30:10;;;;;;;31.98;3.72;;;;;;;;;;5067606;28;20036;-77
2022/01/18 02:32:36;;;;;;;80.22;5.85;;;;;;;;;;5068226;28;20127;-77
2022/01/18 02:35:03;;;;;;;92.63;6.65;;;;;;;;;;5068100;28;20122;-78
2022/01/18 02:37:29;;;;;;;108.05;6.57;;;;;;;;;;5067626;28;20553;-77
2022/01/18 02:39:55;;;;;;;62.72;4.72;;;;;;;;;;5067943;28;20036;-78
2022/01/18 02:42:29;;;;;;;82.88;5.85;;;;;;;;;;5068493;28;20413;-77
2022/01/18 02:44:55;;;;;;;54.45;5.47;;;;;;;;;;5068052;28;20445;-77
2022/01/18 02:47:23;;;;;;;73.68;6.03;;;;;;;;;;5067323;28;20404;-78
2022/01/18 02:49:49;;;;;;;64.72;5.93;;;;;;;;;;5067834;28;20130;-77
2022/01/18 02:52:16;;;;;;;104.65;6.60;;;;;;;;;;5067301;28;20044;-78
2022/01/18 02:54:42;;;;;;;85.15;7.13;;;;;;;;;;5067516;28;20044;-77
2022/01/18 02:57:13;;;;;;;104.05;7.22;;;;;;;;;;5051428;28;20045;-77
2022/01/18 02:59:56;;;;;;;69.25;6.50;;;;;;;;;;5051797;28;20048;-78
2022/01/18 03:05:09;;;;;;;93.65;6.22;;;;;;;;;;5066027;28;20055;-78
2022/01/18 03:07:35;;;;;;;90.60;7.47;;;;;;;;;;5065764;28;20083;-77
2022/01/18 03:10:02;;;;;;;71.43;6.05;;;;;;;;;;5052391;28;20119;-77
2022/01/18 03:12:28;;;;;;;62.17;5.97;;;;;;;;;;5070809;28;20040;-77
2022/01/18 03:14:54;;;;;;;96.43;6.82;;;;;;;;;;5071530;28;20492;-77
2022/01/18 03:17:20;;;;;;;46.53;5.70;;;;;;;;;;5071352;28;20041;-77
2022/01/18 03:19:46;;;;;;;87.75;6.68;;;;;;;;;;5071110;28;20036;-77
2022/01/18 03:22:12;;;;;;;53.40;5.53;;;;;;;;;;5054462;28;20051;-77
2022/01/18 03:24:48;;;;;;;68.50;7.45;;;;;;;;;;5071625;28;20056;-78
2022/01/18 03:30:00;;;;;;;57.33;5.88;;;;;;;;;;5070926;28;19916;-78
2022/01/18 03:32:26;;;;;;;53.83;5.88;;;;;;;;;;5070364;28;20052;-77
2022/01/18 03:34:52;;;;;;;80.88;6.18;;;;;;;;;;5070796;28;20555;-77
2022/01/18 03:37:18;;;;;;;58.40;5.57;;;;;;;;;;5070816;28;20059;-78
2022/01/18 03:39:44;;;;;;;64.07;6.70;;;;;;;;;;5071252;28;20037;-78
2022/01/18 03:44:57;;;;;;;60.10;6.07;;;;;;;;;;5066698;28;20049;-77
2022/01/18 03:47:24;;;;;;;72.55;6.88;;;;;;;;;;5083865;28;20368;-77
2022/01/18 03:49:50;;;;;;;94.00;7.07;;;;;;;;;;5050926;28;20052;-78
2022/01/18 03:52:16;;;;;;;75.72;6.80;;;;;;;;;;5050303;28;20128;-78
2022/01/18 03:54:47;;;;;;;73.65;7.05;;;;;;;;;;5050810;28;20041;-77
2022/01/18 03:57:13;;;;;;;75.45;7.10;;;;;;;;;;5050670;28;20432;-77
2022/01/18 03:59:39;;;;;;;59.97;7.30;;;;;;;;;;5067503;28;20440;-78
2022/01/18 04:02:06;;;;;;;62.58;6.53;;;;;;;;;;5050206;28;20052;-78
2022/01/18 04:04:33;;;;;;;60.50;6.82;;;;;;;;;;5051588;28;20052;-77
2022/01/18 04:06:59;;;;;;;42.90;6.82;;;;;;;;;;5050706;28;20488;-77
2022/01/18 04:09:25;;;;;;;24.67;5.78;;;;;;;;;;5066923;28;20080;-77
2022/01/18 04:11:52;;;;;;;32.53;6.35;;;;;;;;;;5050326;28;20595;-77
2022/01/18 04:14:18;;;;;;;30.90;6.55;;;;;;;;;;5049861;28;20405;-77
2022/01/18 04:17:01;;;;;;;43.35;7.55;;;;;;;;;;5050464;28;20091;-77
2022/01/18 04:27:26;;;;;;;34.08;6.85;;;;;;;;;;5049905;28;20051;-77
2022/01/18 04:29:52;;;;;;;30.50;7.25;;;;;;;;;;5049977;28;20041;-77
2022/01/18 04:32:18;;;;;;;23.75;5.78;;;;;;;;;;5064424;28;20048;-77
2022/01/18 04:34:44;;;;;;;24.52;6.18;;;;;;;;;;5053360;28;20465;-77
2022/01/18 04:37:10;;;;;;;21.10;6.68;;;;;;;;;;5069953;28;20051;-78
2022/01/18 04:39:39;;;;;;;26.45;6.82;;;;;;;;;;5069791;28;20040;-77
2022/01/18 04:42:13;;;;;;;30.40;6.55;;;;;;;;;;5069820;28;20044;-77
2022/01/18 04:50:09;;;;;;;34.47;6.60;;;;;;;;;;5070131;28;20048;-78
2022/01/18 04:52:35;;;;;;;31.48;6.75;;;;;;;;;;5069553;28;20518;-77
2022/01/18 04:55:03;;;;;;;31.45;6.95;;;;;;;;;;5052468;28;20048;-77
2022/01/18 05:00:14;;;;;;;25.35;7.07;;;;;;;;;;5070295;28;20048;-76
2022/01/18 05:02:40;;;;;;;34.17;7.15;;;;;;;;;;5064426;28;20045;-75
2022/01/18 05:05:08;;;;;;;31.23;6.63;;;;;;;;;;5051630;28;20032;-76
2022/01/18 05:07:34;;;;;;;36.72;6.35;;;;;;;;;;5051861;28;20044;-76
2022/01/18 05:10:00;;;;;;;28.30;5.95;;;;;;;;;;5052528;28;20046;-76
2022/01/18 05:12:47;;;;;;;35.22;6.47;;;;;;;;;;5051810;28;20040;-76
2022/01/18 05:23:08;;;;;;;42.95;7.05;;;;;;;;;;5068898;28;20105;-76
2022/01/18 05:25:35;;;;;;;33.80;6.68;;;;;;;;;;5068986;28;20459;-75
2022/01/18 05:28:02;;;;;;;35.20;6.82;;;;;;;;;;5068820;28;20037;-75
2022/01/18 05:30:28;;;;;;;29.33;6.32;;;;;;;;;;5068681;28;20060;-75
2022/01/18 05:32:55;;;;;;;30.48;6.57;;;;;;;;;;5067920;28;20123;-75
2022/01/18 05:35:23;;;;;;;25.85;6.32;;;;;;;;;;5068116;28;20041;-75
2022/01/18 05:37:49;;;;;;;31.48;6.53;;;;;;;;;;5052203;28;20426;-75
2022/01/18 05:40:16;;;;;;;25.23;6.22;;;;;;;;;;5069146;28;20396;-75
2022/01/18 05:42:42;;;;;;;34.47;5.90;;;;;;;;;;5052024;28;20044;-76
2022/01/18 05:45:09;;;;;;;42.70;6.93;;;;;;;;;;5069803;28;20044;-76
2022/01/18 05:47:35;;;;;;;33.95;6.85;;;;;;;;;;5068134;28;20044;-76
2022/01/18 05:50:02;;;;;;;33.40;6.43;;;;;;;;;;5051819;28;20139;-75
2022/01/18 05:52:28;;;;;;;33.22;6.25;;;;;;;;;;5067885;28;20079;-76
2022/01/18 05:54:54;;;;;;;31.92;6.65;;;;;;;;;;5068333;28;20037;-76
2022/01/18 05:57:20;;;;;;;33.85;5.63;;;;;;;;;;5067933;28;20175;-75
2022/01/18 05:59:47;;;;;;;33.53;6.32;;;;;;;;;;5068143;28;20052;-75
2022/01/18 06:02:28;;;;;;;29.05;5.72;;;;;;;;;;5051580;28;20131;-75
2022/01/18 06:07:39;;;;;;;37.53;6.85;;;;;;;;;;5068088;28;20398;-76
2022/01/18 06:10:05;;;;;;;27.55;6.18;;;;;;;;;;5069479;28;20562;-77
2022/01/18 06:12:32;;;;;;;34.47;6.60;;;;;;;;;;5067573;28;20041;-77
2022/01/18 06:14:58;;;;;;;33.40;5.65;;;;;;;;;;5067192;28;20059;-77
2022/01/18 06:17:24;;;;;;;27.67;5.60;;;;;;;;;;5067145;28;20040;-77
2022/01/18 06:19:50;;;;;;;30.92;6.07;;;;;;;;;;5051685;28;20047;-77
2022/01/18 06:22:16;;;;;;;32.00;6.13;;;;;;;;;;5068140;28;20119;-77
2022/01/18 06:24:43;;;;;;;33.78;5.65;;;;;;;;;;5067651;28;20051;-77
2022/01/18 06:27:09;;;;;;;25.30;6.22;;;;;;;;;;5067961;28;20044;-76
2022/01/18 06:29:36;;;;;;;28.95;5.30;;;;;;;;;;5067133;28;20040;-77
2022/01/18 06:32:02;;;;;;;26.02;5.47;;;;;;;;;;5051044;28;20051;-77
2022/01/18 06:34:31;;;;;;;27.10;4.72;;;;;;;;;;5050512;28;20051;-77
2022/01/18 06:37:07;;;;;;;28.88;5.55;;;;;;;;;;5052729;28;20194;-77
2022/01/18 06:39:33;;;;;;;17.50;5.00;;;;;;;;;;5068900;28;20045;-77
2022/01/18 06:41:59;;;;;;;25.50;5.20;;;;;;;;;;5067698;28;20115;-77
2022/01/18 06:44:25;;;;;;;23.10;5.60;;;;;;;;;;5067985;28;20059;-77
2022/01/18 06:46:52;;;;;;;24.08;5.20;;;;;;;;;;5072546;28;20392;-77
2022/01/18 06:49:18;;;;;;;24.35;4.47;;;;;;;;;;5055272;28;20078;-77
2022/01/18 06:51:44;;;;;;;29.75;5.20;;;;;;;;;;5071710;28;20062;-77
2022/01/18 06:54:15;;;;;;;20.17;4.85;;;;;;;;;;5071589;28;20044;-77
2022/01/18 06:56:44;;;;;;;25.70;5.00;;;;;;;;;;5055454;28;20499;-77
2022/01/18 06:59:11;;;;;;;18.67;4.60;;;;;;;;;;5071664;28;20053;-77
2022/01/18 07:01:37;;;;;;;24.55;5.13;;;;;;;;;;5054463;28;20048;-77
2022/01/18 07:04:03;;;;;;;23.77;5.07;;;;;;;;;;5071764;28;20048;-77
2022/01/18 07:06:29;;;;;;;17.55;4.50;;;;;;;;;;5070808;28;20127;-77
2022/01/18 07:08:55;;;;;;;23.20;5.40;;;;;;;;;;5055312;28;20048;-77
2022/01/18 07:11:21;;;;;;;27.77;5.40;;;;;;;;;;5070919;28;20112;-77
2022/01/18 07:13:47;;;;;;;28.83;4.90;;;;;;;;;;5072706;28;20040;-77
2022/01/18 07:16:13;;;;;;;24.70;4.45;;;;;;;;;;5071334;28;20048;-77
2022/01/18 07:18:39;;;;;;;27.38;5.55;;;;;;;;;;5070995;28;20047;-77
2022/01/18 07:21:06;;;;;;;23.00;5.28;;;;;;;;;;5071712;28;20127;-77
2022/01/18 07:23:34;;;;;;;27.75;5.65;;;;;;;;;;5070865;28;20041;-77
2022/01/18 07:26:00;;;;;;;29.45;5.70;;;;;;;;;;5054545;28;20515;-77
2022/01/18 07:28:26;;;;;;;24.20;5.97;;;;;;;;;;5054111;28;20044;-78
2022/01/18 07:30:52;;;;;;;26.33;6.15;;;;;;;;;;5072381;28;20047;-77
2022/01/18 07:33:18;;;;;;;29.67;6.47;;;;;;;;;;5071153;28;20091;-77
2022/01/18 07:35:45;;;;;;;31.20;6.43;;;;;;;;;;5054263;28;20032;-77
2022/01/18 07:38:16;;;;;;;25.98;6.72;;;;;;;;;;5071051;28;20044;-77
2022/01/18 07:40:43;;;;;;;28.85;6.30;;;;;;;;;;5054376;28;20463;-77
2022/01/18 07:43:10;;;;;;;28.77;7.18;;;;;;;;;;5072610;28;20464;-77
2022/01/18 07:45:36;;;;;;;29.52;6.53;;;;;;;;;;5054145;28;20045;-77
2022/01/18 07:48:02;;;;;;;37.83;6.45;;;;;;;;;;5070732;28;20036;-77
2022/01/18 07:50:28;;;;;;;29.35;6.32;;;;;;;;;;5070507;28;20037;-77
2022/01/18 07:52:56;;;;;;;30.60;5.90;;;;;;;;;;5070314;28;20436;-77
2022/01/18 07:55:22;;;;;;;28.73;6.57;;;;;;;;;;5071162;28;20098;-77
2022/01/18 07:57:48;;;;;;;32.60;6.50;;;;;;;;;;5072059;28;20045;-77
2022/01/18 08:00:16;;;;;;;30.48;6.88;;;;;;;;;;5070462;28;20089;-77
2022/01/18 08:02:42;;;;;;;28.73;5.70;;;;;;;;;;5070077;28;20430;-77
2022/01/18 08:05:09;;;;;;;24.95;5.30;;;;;;;;;;5071494;28;20400;-77
2022/01/18 08:07:35;;;;;;;24.55;5.38;;;;;;;;;;5069434;28;20101;-77
2022/01/18 08:10:02;;;;;;;27.58;5.10;;;;;;;;;;5070521;28;20041;-77
2022/01/18 08:12:28;;;;;;;32.15;5.88;;;;;;;;;;5070092;28;20507;-77
2022/01/18 08:15:00;;;;;;;22.00;5.45;;;;;;;;;;5053531;28;20052;-77
2022/01/18 08:17:26;;;;;;;21.65;4.32;;;;;;;;;;5069913;28;20051;-77
2022/01/18 08:19:52;;;;;;;21.42;4.75;;;;;;;;;;5053693;28;20048;-77
2022/01/18 08:22:18;;;;;;;17.70;4.10;;;;;;;;;;5069777;28;20063;-77
2022/01/18 08:24:44;;;;;;;24.35;3.70;;;;;;;;;;5069782;28;20119;-77
2022/01/18 08:27:10;;;;;;;11.55;3.33;;;;;;;;;;5069950;28;20041;-77
2022/01/18 08:29:36;;;;;;;16.15;3.58;;;;;;;;;;5070010;28;20488;-77
2022/01/18 08:32:06;;;;;;;19.30;3.58;;;;;;;;;;5069718;28;20052;-77
2022/01/18 08:34:32;;;;;;;13.70;3.00;;;;;;;;;;5052704;28;20055;-77
2022/01/18 08:36:59;;;;;;;16.65;3.15;;;;;;;;;;5071093;28;20044;-77
2022/01/18 08:39:25;;;;;;;18.02;3.30;;;;;;;;;;5069545;28;20041;-77
2022/01/18 08:41:51;;;;;;;16.73;3.80;;;;;;;;;;5053203;28;20041;-77
2022/01/18 08:44:17;;;;;;;25.17;4.22;;;;;;;;;;5070129;28;20488;-77
2022/01/18 08:46:43;;;;;;;22.67;4.40;;;;;;;;;;5052915;28;20444;-77
2022/01/18 08:49:09;;;;;;;22.95;4.45;;;;;;;;;;5053145;28;20397;-77
2022/01/18 08:51:36;;;;;;;25.70;5.82;;;;;;;;;;5069108;28;20072;-77
2022/01/18 08:54:03;;;;;;;23.30;6.35;;;;;;;;;;5070667;28;20044;-77
2022/01/18 08:56:29;;;;;;;24.30;5.50;;;;;;;;;;5052908;28;20040;-77
2022/01/18 08:58:56;;;;;;;22.63;4.63;;;;;;;;;;5069181;28;20055;-77
2022/01/18 09:01:22;;;;;;;20.50;5.25;;;;;;;;;;5069305;28;20530;-77
2022/01/18 09:03:50;;;;;;;28.08;5.43;;;;;;;;;;5069218;28;20053;-77
2022/01/18 09:06:16;;;;;;;25.40;5.53;;;;;;;;;;5069276;28;20098;-77
2022/01/18 09:08:43;;;;;;;26.73;6.30;;;;;;;;;;5068203;28;20127;-77
2022/01/18 09:11:13;;;;;;;40.90;7.93;;;;;;;;;;5052458;28;20076;-77
2022/01/18 09:13:39;;;;;;;30.95;7.25;;;;;;;;;;5068609;28;20427;-77
2022/01/18 09:16:09;;;;;;;33.90;8.55;;;;;;;;;;5052842;28;20172;-77
2022/01/18 09:18:35;;;;;;;30.20;7.95;;;;;;;;;;5068780;28;20044;-77
2022/01/18 09:21:01;;;;;;;36.83;8.15;;;;;;;;;;5069367;28;20052;-77
2022/01/18 09:23:27;;;;;;;30.98;7.93;;;;;;;;;;5068309;28;20037;-77
2022/01/18 09:25:53;;;;;;;26.35;7.43;;;;;;;;;;5068728;28;20082;-77
2022/01/18 09:28:20;;;;;;;36.95;8.50;;;;;;;;;;5068641;28;20127;-77
2022/01/18 09:30:46;;;;;;;34.15;8.88;;;;;;;;;;5068343;28;20056;-77
2022/01/18 09:33:12;;;;;;;30.13;7.55;;;;;;;;;;5068654;28;20044;-77
2022/01/18 09:35:38;;;;;;;37.35;8.15;;;;;;;;;;5068532;28;20075;-77
2022/01/18 09:38:05;;;;;;;32.10;7.63;;;;;;;;;;5068860;28;20044;-77
2022/01/18 09:40:33;;;;;;;37.78;8.43;;;;;;;;;;5068280;28;20050;-77
2022/01/18 09:43:01;;;;;;;36.03;7.32;;;;;;;;;;5068663;28;20067;-77
2022/01/18 09:45:28;;;;;;;28.15;7.80;;;;;;;;;;5068335;28;20514;-76
2022/01/18 09:47:56;;;;;;;28.27;7.95;;;;;;;;;;5068435;28;20090;-77
2022/01/18 09:50:27;;;;;;;31.80;7.60;;;;;;;;;;5068021;28;20040;-76
2022/01/18 09:52:55;;;;;;;28.80;7.55;;;;;;;;;;5051962;28;20145;-77
2022/01/18 09:55:23;;;;;;;24.42;6.85;;;;;;;;;;5069067;28;20040;-77
2022/01/18 09:57:50;;;;;;;23.48;7.10;;;;;;;;;;5069593;28;20075;-76
2022/01/18 10:00:16;;;;;;;27.80;7.38;;;;;;;;;;5050873;28;20463;-77
2022/01/18 10:02:43;;;;;;;30.23;9.02;;;;;;;;;;5068722;28;20120;-77
2022/01/18 10:05:18;;;;;;;29.08;8.10;;;;;;;;;;5068544;28;20048;-77
2022/01/18 10:07:45;;;;;;;24.02;7.25;;;;;;;;;;5068056;28;20470;-77
2022/01/18 10:10:11;;;;;;;25.60;7.07;;;;;;;;;;5068470;28;20115;-77
2022/01/18 10:12:37;;;;;;;25.40;6.32;;;;;;;;;;5050888;28;20078;-77
2022/01/18 10:15:04;;;;;;;16.23;4.63;;;;;;;;;;5051453;28;20048;-77
2022/01/18 10:17:37;;;;;;;18.42;4.70;;;;;;;;;;5068019;28;20037;-77
2022/01/18 10:20:08;;;;;;;19.08;4.43;;;;;;;;;;5051234;28;20044;-77
2022/01/18 10:22:41;;;;;;;17.98;4.45;;;;;;;;;;5051339;28;20522;-77
2022/01/18 10:25:24;;;;;;;21.70;4.80;;;;;;;;;;5068015;28;20055;-77
2022/01/18 10:27:52;;;;;;;19.77;4.93;;;;;;;;;;5068079;28;20131;-77
2022/01/18 10:30:32;;;;;;;16.00;3.80;;;;;;;;;;5067868;28;20048;-77
2022/01/18 10:33:08;;;;;;;14.27;3.85;;;;;;;;;;5031305;28;20070;-77
2022/01/18 10:35:34;;;;;;;16.98;4.38;;;;;;;;;;5047591;28;20064;-77
2022/01/18 10:38:00;;;;;;;16.08;4.68;;;;;;;;;;5048162;28;20377;-77
2022/01/18 10:40:27;;;;;;;17.63;4.93;;;;;;;;;;5047330;28;20040;-77
2022/01/18 10:42:54;;;;;;;17.42;4.95;;;;;;;;;;5047806;28;20136;-77
2022/01/18 10:45:26;;;;;;;18.00;5.00;;;;;;;;;;5047986;28;20463;-77
2022/01/18 10:48:04;;;;;;;21.00;4.82;;;;;;;;;;5047436;28;20068;-77
2022/01/18 10:50:38;;;;;;;15.18;5.20;;;;;;;;;;5047365;28;20496;-76
2022/01/18 10:53:14;;;;;;;16.17;5.30;;;;;;;;;;5047577;28;20055;-77
2022/01/18 10:55:41;;;;;;;19.70;5.47;;;;;;;;;;5047653;28;20048;-77
2022/01/18 10:58:15;;;;;;;15.48;5.47;;;;;;;;;;5047525;28;20049;-77
2022/01/18 11:00:41;;;;;;;19.10;6.07;;;;;;;;;;5047305;28;20052;-77
2022/01/18 11:03:07;;;;;;;25.85;7.90;;;;;;;;;;5048108;28;20040;-77
2022/01/18 11:05:38;;;;;;;18.90;6.93;;;;;;;;;;5047319;28;20048;-77
2022/01/18 11:08:05;;;;;;;18.73;6.32;;;;;;;;;;5047560;28;20128;-77
2022/01/18 11:10:42;;;;;;;19.08;5.90;;;;;;;;;;5047407;28;20043;-77
2022/01/18 11:13:11;;;;;;;16.80;5.70;;;;;;;;;;5047599;28;20076;-77
2022/01/18 11:15:42;;;;;;;14.95;5.50;;;;;;;;;;5047363;28;20460;-77
2022/01/18 11:18:24;;;;;;;16.40;5.25;;;;;;;;;;5047922;28;20051;-77
2022/01/18 11:20:50;;;;;;;18.30;5.68;;;;;;;;;;5047361;28;20052;-77
2022/01/18 11:23:17;;;;;;;14.50;5.55;;;;;;;;;;5047324;28;20045;-77
2022/01/18 11:25:44;;;;;;;14.77;5.13;;;;;;;;;;5046672;28;20436;-77
2022/01/18 11:28:12;;;;;;;17.58;5.03;;;;;;;;;;5048626;28;20036;-77
2022/01/18 11:30:40;;;;;;;17.50;5.53;;;;;;;;;;5048948;28;20041;-77
2022/01/18 11:33:07;;;;;;;16.27;5.25;;;;;;;;;;5071645;28;20132;-77
2022/01/18 11:35:52;;;;;;;15.45;5.15;;;;;;;;;;5053855;28;20052;-77
2022/01/18 11:38:41;;;;;;;19.75;5.45;;;;;;;;;;5070975;28;20040;-77
2022/01/18 11:41:08;;;;;;;17.58;5.57;;;;;;;;;;5072284;28;20526;-77
2022/01/18 11:43:41;;;;;;;15.90;5.78;;;;;;;;;;5070734;28;20051;-77
2022/01/18 11:46:27;;;;;;;16.30;4.93;;;;;;;;;;5070886;28;20049;-77
2022/01/18 11:49:07;;;;;;;15.70;4.75;;;;;;;;;;5072490;28;20047;-77
2022/01/18 11:51:52;;;;;;;13.13;5.43;;;;;;;;;;5070776;28;20565;-77
2022/01/18 11:54:43;;;;;;;14.88;5.32;;;;;;;;;;5070401;28;20131;-77
2022/01/18 11:57:24;;;;;;;14.32;4.40;;;;;;;;;;5070737;28;20488;-77
2022/01/18 11:59:50;;;;;;;12.68;4.00;;;;;;;;;;5053879;28;20508;-77
2022/01/18 12:02:28;;;;;;;12.05;4.13;;;;;;;;;;5070520;28;20132;-77
2022/01/18 12:04:56;;;;;;;12.85;4.40;;;;;;;;;;5070686;28;20040;-77
2022/01/18 12:07:36;;;;;;;12.10;4.20;;;;;;;;;;5070217;28;20126;-77
2022/01/18 12:10:07;;;;;;;9.88;3.65;;;;;;;;;;5070403;28;20080;-77
2022/01/18 12:12:44;;;;;;;9.23;3.78;;;;;;;;;;5053322;28;20052;-77
2022/01/18 12:15:17;;;;;;;12.30;3.47;;;;;;;;;;5070300;28;20044;-77
2022/01/18 12:17:51;;;;;;;13.70;3.70;;;;;;;;;;5069859;28;20106;-77
2022/01/18 12:20:37;;;;;;;13.50;4.80;;;;;;;;;;5070636;28;20388;-77
2022/01/18 12:23:06;;;;;;;12.43;5.07;;;;;;;;;;5053861;28;20492;-77
2022/01/18 12:25:35;;;;;;;14.60;4.93;;;;;;;;;;5070046;28;20657;-77
2022/01/18 12:28:21;;;;;;;12.45;4.75;;;;;;;;;;5069736;28;20052;-77
2022/01/18 12:31:05;;;;;;;14.05;4.13;;;;;;;;;;5071538;28;20040;-77
2022/01/18 12:33:43;;;;;;;11.40;5.13;;;;;;;;;;5069615;28;20067;-77
2022/01/18 12:36:28;;;;;;;12.52;5.07;;;;;;;;;;5069946;28;20118;-77
2022/01/18 12:39:01;;;;;;;14.17;4.50;;;;;;;;;;5070546;28;20047;-77
2022/01/18 12:41:40;;;;;;;15.48;5.25;;;;;;;;;;5070503;28;20071;-77
2022/01/18 12:44:21;;;;;;;14.25;5.10;;;;;;;;;;5069392;28;20040;-77
2022/01/18 12:46:54;;;;;;;15.68;4.93;;;;;;;;;;5069249;28;20045;-77
2022/01/18 12:49:20;;;;;;;12.10;4.68;;;;;;;;;;5069832;28;20041;-77
2022/01/18 12:51:47;;;;;;;12.32;4.47;;;;;;;;;;5069589;28;20059;-76
2022/01/18 12:54:13;;;;;;;12.38;5.03;;;;;;;;;;5069500;28;20045;-77
2022/01/18 12:56:39;;;;;;;13.88;5.45;;;;;;;;;;5052523;28;20037;-77
2022/01/18 12:59:05;;;;;;;13.48;5.32;;;;;;;;;;5069165;28;20057;-77
2022/01/18 13:01:33;;;;;;;14.35;6.03;;;;;;;;;;5068970;28;20102;-77
2022/01/18 13:03:59;;;;;;;18.48;5.53;;;;;;;;;;5069391;28;20041;-77
2022/01/18 13:06:30;;;;;;;14.07;5.57;;;;;;;;;;5069040;28;20040;-77
2022/01/18 13:09:00;;;;;;;15.05;5.75;;;;;;;;;;5069582;28;20060;-77
2022/01/18 13:11:26;;;;;;;16.60;5.68;;;;;;;;;;5068266;28;20052;-77
2022/01/18 13:14:07;;;;;;;14.77;5.68;;;;;;;;;;5068620;28;20041;-77
2022/01/18 13:27:27;;;;;;;18.08;7.05;;;;;;;;;;5068811;28;20044;-77
2022/01/18 13:29:55;;;;;;;19.10;6.82;;;;;;;;;;5069304;28;20052;-77
2022/01/18 13:32:28;;;;;;;20.88;7.30;;;;;;;;;;5068563;28;20044;-77
2022/01/18 13:34:57;;;;;;;21.73;7.18;;;;;;;;;;5068742;28;20072;-77
2022/01/18 13:37:27;;;;;;;22.75;7.32;;;;;;;;;;5068688;28;20072;-77
2022/01/18 13:39:55;;;;;;;22.80;7.30;;;;;;;;;;5069222;28;20044;-77
2022/01/18 13:42:24;;;;;;;23.73;8.15;;;;;;;;;;5068405;28;20041;-77
2022/01/18 13:45:26;;;;;;;22.55;7.25;;;;;;;;;;5068297;28;20040;-77
2022/01/18 13:48:00;;;;;;;16.52;6.55;;;;;;;;;;5014315;28;20051;-77
2022/01/18 13:50:36;;;;;;;22.52;6.45;;;;;;;;;;5062535;28;20052;-77
2022/01/18 13:53:07;;;;;;;21.35;6.68;;;;;;;;;;5068636;28;20395;-77
2022/01/18 13:55:34;;;;;;;17.70;6.30;;;;;;;;;;5067483;28;20062;-77
2022/01/18 13:58:01;;;;;;;23.75;6.60;;;;;;;;;;5068227;28;20173;-77
2022/01/18 14:00:28;;;;;;;22.45;7.10;;;;;;;;;;5067535;28;20136;-77
2022/01/18 14:02:55;;;;;;;20.10;6.70;;;;;;;;;;5068665;28;20487;-77
2022/01/18 14:05:23;;;;;;;28.13;6.85;;;;;;;;;;5068638;28;20128;-77
2022/01/18 14:07:49;;;;;;;29.17;8.63;;;;;;;;;;5067829;28;20051;-77
2022/01/18 14:10:15;;;;;;;25.13;8.63;;;;;;;;;;5035327;28;20733;-77
2022/01/18 14:12:42;;;;;;;28.95;8.95;;;;;;;;;;5068155;28;20378;-77
2022/01/18 14:15:08;;;;;;;29.88;9.05;;;;;;;;;;5068113;28;20048;-77
2022/01/18 14:17:34;;;;;;;25.35;8.18;;;;;;;;;;5051036;28;20040;-77
2022/01/18 14:20:05;;;;;;;27.23;8.80;;;;;;;;;;5068032;28;20044;-77
2022/01/18 14:22:35;;;;;;;27.55;9.23;;;;;;;;;;5066889;28;20086;-77
2022/01/18 14:25:04;;;;;;;29.05;8.15;;;;;;;;;;5068259;28;20036;-77
2022/01/18 14:27:43;;;;;;;28.13;8.85;;;;;;;;;;5067729;28;20044;-77
2022/01/18 14:30:10;;;;;;;28.48;8.85;;;;;;;;;;5067792;28;20049;-77
2022/01/18 14:32:36;;;;;;;29.48;8.95;;;;;;;;;;5050907;28;20048;-77
2022/01/18 14:35:07;;;;;;;19.08;7.20;;;;;;;;;;5067708;28;20086;-77
2022/01/18 14:37:34;;;;;;;26.98;7.40;;;;;;;;;;5067483;28;20048;-77
2022/01/18 14:40:03;;;;;;;29.70;7.50;;;;;;;;;;5069450;28;20090;-77
2022/01/18 14:42:34;;;;;;;23.52;7.63;;;;;;;;;;5067761;28;20032;-77
2022/01/18 14:45:30;;;;;;;30.05;7.97;;;;;;;;;;5067830;28;20044;-77
2022/01/18 14:47:50;;;;;;;25.80;7.75;;;;;;;;;;5052629;28;20098;-77
2022/01/18 14:50:17;;;;;;;28.95;8.60;;;;;;;;;;5051598;28;20454;-77
2022/01/18 14:52:46;;;;;;;41.55;9.60;;;;;;;;;;5067361;28;20047;-77
2022/01/18 14:55:12;;;;;;;29.73;9.25;;;;;;;;;;5051552;28;20123;-77
2022/01/18 14:57:39;;;;;;;35.83;9.75;;;;;;;;;;5067481;28;20043;-77
2022/01/18 15:00:07;;;;;;;31.70;9.80;;;;;;;;;;5067051;28;20110;-77
2022/01/18 15:02:33;;;;;;;39.17;9.52;;;;;;;;;;5067304;28;20079;-77
2022/01/18 15:04:59;;;;;;;27.95;9.57;;;;;;;;;;5068009;28;20060;-77
2022/01/18 15:07:25;;;;;;;34.78;9.70;;;;;;;;;;5071550;28;20562;-77
2022/01/18 15:09:51;;;;;;;31.17;8.30;;;;;;;;;;5071301;28;20044;-77
2022/01/18 15:12:18;;;;;;;34.78;8.23;;;;;;;;;;5054521;28;20109;-77
2022/01/18 15:14:44;;;;;;;25.83;8.10;;;;;;;;;;5070929;28;20040;-76
2022/01/18 15:17:11;;;;;;;31.27;8.15;;;;;;;;;;5071640;28;20618;-77
2022/01/18 15:19:38;;;;;;;33.85;8.50;;;;;;;;;;5071152;28;20036;-77
2022/01/18 15:22:08;;;;;;;31.65;7.75;;;;;;;;;;5071607;28;20033;-77
2022/01/18 15:24:34;;;;;;;22.05;7.07;;;;;;;;;;5054649;28;20048;-77
2022/01/18 15:27:00;;;;;;;19.65;6.13;;;;;;;;;;5071696;28;20500;-77
2022/01/18 15:29:27;;;;;;;39.42;6.40;;;;;;;;;;5054730;28;20527;-77
2022/01/18 15:31:53;;;;;;;22.58;6.00;;;;;;;;;;5070988;28;20555;-77
2022/01/18 15:34:19;;;;;;;43.13;6.57;;;;;;;;;;5054510;28;20055;-77
2022/01/18 15:36:45;;;;;;;39.40;6.32;;;;;;;;;;5070932;28;20054;-77
2022/01/18 15:39:11;;;;;;;26.00;6.20;;;;;;;;;;5071342;28;20127;-76
2022/01/18 15:41:37;;;;;;;34.08;6.82;;;;;;;;;;5071984;28;20076;-77
2022/01/18 15:44:04;;;;;;;26.33;7.28;;;;;;;;;;5070629;28;20052;-77
2022/01/18 15:46:30;;;;;;;39.60;7.15;;;;;;;;;;5070305;28;20132;-77
2022/01/18 15:48:56;;;;;;;35.60;7.47;;;;;;;;;;5071043;28;20047;-77
2022/01/18 15:51:22;;;;;;;56.08;8.90;;;;;;;;;;5071171;28;20523;-77
2022/01/18 15:53:48;;;;;;;42.03;8.60;;;;;;;;;;5070243;28;20048;-77
2022/01/18 15:56:18;;;;;;;48.00;9.10;;;;;;;;;;5070964;28;20468;-76
2022/01/18 15:58:44;;;;;;;31.65;8.30;;;;;;;;;;5053283;28;20568;-77
2022/01/18 16:01:10;;;;;;;43.80;9.20;;;;;;;;;;5070387;28;20049;-77
2022/01/18 16:03:36;;;;;;;39.88;9.63;;;;;;;;;;5070075;28;20070;-77